Time;durP1;ratioP1;P1;durP2;ratioP2;P2;SDS_P1;SDS_P2;PMS_P1;PMS_P2;Temp;Humidity;BMP_temperature;BMP_pressure;BME280_temperature;BME280_humidity;BME280_pressure;Samples;Min_cycle;Max_cycle;Signal;HPM_P1;HPM_P2
2023/03/17 00:00:18;;;;;;;6.65;3.08;;;10.80;59.30;;;;;;5098711;28;20043;-62
2023/03/17 00:02:46;;;;;;;6.75;2.97;;;10.80;59.20;;;;;;5089788;28;20032;-62
2023/03/17 00:05:19;;;;;;;7.07;2.75;;;10.80;59.20;;;;;;5098325;28;20115;-63
2023/03/17 00:07:46;;;;;;;6.35;2.65;;;10.80;59.10;;;;;;5091689;28;20487;-62
2023/03/17 00:10:18;;;;;;;6.65;2.88;;;10.80;59.20;;;;;;5093254;28;20111;-62
2023/03/17 00:12:44;;;;;;;6.97;2.97;;;10.80;59.30;;;;;;5090736;28;20043;-62
2023/03/17 00:15:11;;;;;;;7.20;2.78;;;10.80;59.30;;;;;;5090498;28;20036;-62
2023/03/17 00:17:37;;;;;;;6.07;2.63;;;10.80;59.30;;;;;;5094832;28;20518;-62
2023/03/17 00:20:04;;;;;;;6.13;2.75;;;10.70;59.40;;;;;;5094968;28;20064;-62
2023/03/17 00:22:30;;;;;;;7.30;3.22;;;10.70;59.50;;;;;;5093232;28;20027;-62
2023/03/17 00:24:56;;;;;;;5.93;2.70;;;10.70;59.70;;;;;;5095838;28;20444;-63
2023/03/17 00:27:23;;;;;;;7.18;2.78;;;10.60;59.80;;;;;;5094446;28;20421;-62
2023/03/17 00:29:49;;;;;;;5.32;2.63;;;10.60;59.80;;;;;;5095158;28;20095;-62
2023/03/17 00:32:19;;;;;;;6.55;3.25;;;10.60;59.90;;;;;;5093594;28;20035;-63
2023/03/17 00:34:45;;;;;;;7.28;3.17;;;10.50;59.90;;;;;;5086606;28;20024;-63
2023/03/17 00:37:11;;;;;;;5.57;2.72;;;10.50;60.00;;;;;;5095632;28;20364;-62
2023/03/17 00:39:38;;;;;;;6.00;3.10;;;10.50;60.10;;;;;;5094977;28;20028;-62
2023/03/17 00:42:05;;;;;;;7.03;2.70;;;10.50;60.20;;;;;;5095361;28;20060;-62
2023/03/17 00:44:33;;;;;;;6.93;3.08;;;10.50;60.30;;;;;;5093081;28;20054;-62
2023/03/17 00:46:59;;;;;;;6.70;2.90;;;10.40;60.30;;;;;;5097465;28;20097;-62
2023/03/17 00:49:26;;;;;;;6.20;2.97;;;10.40;60.30;;;;;;5094837;28;20024;-62
2023/03/17 00:51:53;;;;;;;5.93;2.65;;;10.40;60.40;;;;;;5085942;28;20427;-62
2023/03/17 00:54:20;;;;;;;5.45;2.55;;;10.40;60.40;;;;;;5079842;28;20083;-64
2023/03/17 00:56:48;;;;;;;6.47;3.10;;;10.40;60.50;;;;;;5098957;28;20152;-63
2023/03/17 00:59:25;;;;;;;6.88;2.80;;;10.40;60.50;;;;;;5095211;28;20024;-63
2023/03/17 01:01:51;;;;;;;6.22;3.00;;;10.40;60.60;;;;;;5094723;28;20055;-63
2023/03/17 01:04:18;;;;;;;7.32;3.20;;;10.40;60.60;;;;;;5091823;28;20682;-63
2023/03/17 01:06:45;;;;;;;6.07;2.80;;;10.30;60.70;;;;;;5093456;28;20499;-61
2023/03/17 01:09:17;;;;;;;7.18;3.00;;;10.30;60.70;;;;;;5094137;28;20353;-61
2023/03/17 01:11:43;;;;;;;7.28;3.08;;;10.30;60.70;;;;;;5095022;28;20040;-62
2023/03/17 01:14:10;;;;;;;6.20;3.05;;;10.30;60.80;;;;;;5067614;28;20030;-62
2023/03/17 01:16:37;;;;;;;7.45;2.83;;;10.20;60.80;;;;;;5093512;28;20066;-62
2023/03/17 01:19:03;;;;;;;7.13;2.90;;;10.20;60.90;;;;;;5091360;28;20036;-62
2023/03/17 01:21:29;;;;;;;7.97;3.00;;;10.20;61.00;;;;;;5097485;28;20103;-62
2023/03/17 01:23:55;;;;;;;8.80;3.08;;;10.20;61.00;;;;;;5095537;28;20120;-62
2023/03/17 01:26:21;;;;;;;9.65;3.30;;;10.20;61.10;;;;;;5088924;28;20252;-62
2023/03/17 01:28:47;;;;;;;6.13;2.88;;;10.20;61.10;;;;;;5079239;28;20028;-62
2023/03/17 01:31:13;;;;;;;7.25;3.60;;;10.20;61.10;;;;;;5079670;28;20033;-62
2023/03/17 01:33:39;;;;;;;6.43;3.10;;;10.20;61.10;;;;;;5099055;28;20456;-62
2023/03/17 01:36:05;;;;;;;5.72;2.67;;;10.20;61.00;;;;;;5094521;28;20046;-62
2023/03/17 01:38:31;;;;;;;7.85;3.05;;;10.20;61.10;;;;;;5092268;28;20032;-62
2023/03/17 01:40:57;;;;;;;6.47;2.95;;;10.20;61.20;;;;;;5094610;28;20130;-62
2023/03/17 01:43:26;;;;;;;6.47;2.90;;;10.10;61.20;;;;;;5097572;28;20024;-62
2023/03/17 01:46:14;;;;;;;7.75;3.30;;;10.10;61.40;;;;;;5092664;28;20047;-61
2023/03/17 01:48:49;;;;;;;7.05;3.25;;;10.10;61.50;;;;;;5086475;28;20016;-62
2023/03/17 01:51:23;;;;;;;6.30;3.22;;;10.00;61.60;;;;;;5094718;28;20064;-61
2023/03/17 01:53:51;;;;;;;7.35;3.25;;;10.00;61.70;;;;;;5094619;28;20471;-62
2023/03/17 01:56:18;;;;;;;6.03;2.72;;;10.00;61.70;;;;;;5093528;28;20035;-62
2023/03/17 01:58:48;;;;;;;7.18;2.95;;;10.00;61.80;;;;;;5083015;28;20332;-62
2023/03/17 02:01:14;;;;;;;8.25;3.15;;;10.00;61.90;;;;;;5093506;28;20079;-62
2023/03/17 02:03:41;;;;;;;6.95;3.10;;;9.90;61.90;;;;;;5090947;28;20021;-62
2023/03/17 02:06:08;;;;;;;6.10;2.80;;;9.90;62.00;;;;;;5093386;28;20050;-62
2023/03/17 02:08:34;;;;;;;7.18;3.15;;;9.90;62.10;;;;;;5092797;28;20063;-61
2023/03/17 02:11:02;;;;;;;7.45;3.13;;;9.90;62.10;;;;;;5093334;28;20027;-61
2023/03/17 02:13:28;;;;;;;9.55;3.40;;;9.90;62.20;;;;;;5096748;28;20028;-62
2023/03/17 02:15:54;;;;;;;8.10;3.40;;;9.90;62.20;;;;;;5092868;28;20038;-61
2023/03/17 02:18:22;;;;;;;6.30;3.13;;;9.90;62.30;;;;;;5091543;28;20028;-61
2023/03/17 02:20:48;;;;;;;10.65;3.70;;;9.80;62.30;;;;;;5074349;28;20118;-61
2023/03/17 02:23:18;;;;;;;6.75;3.22;;;9.80;62.30;;;;;;5083623;28;20028;-62
2023/03/17 02:25:47;;;;;;;6.95;3.08;;;9.80;62.30;;;;;;5094134;28;20055;-62
2023/03/17 02:28:28;;;;;;;6.05;2.70;;;9.80;62.30;;;;;;5085048;28;20506;-62
2023/03/17 02:30:54;;;;;;;6.30;2.70;;;9.80;62.30;;;;;;5093633;28;20032;-61
2023/03/17 02:33:20;;;;;;;7.13;3.00;;;9.80;62.40;;;;;;5093027;28;20035;-62
2023/03/17 02:35:46;;;;;;;6.57;3.28;;;9.70;62.40;;;;;;5092780;28;20027;-61
2023/03/17 02:38:16;;;;;;;7.20;3.20;;;9.70;62.60;;;;;;5093638;28;20028;-62
2023/03/17 02:40:42;;;;;;;6.32;3.25;;;9.70;62.70;;;;;;5087933;28;20033;-62
2023/03/17 02:43:07;;;;;;;7.20;3.53;;;9.70;62.70;;;;;;5102155;28;20020;-62
2023/03/17 02:45:33;;;;;;;7.28;3.53;;;9.60;62.70;;;;;;5079183;28;20020;-62
2023/03/17 02:47:59;;;;;;;6.57;3.25;;;9.60;62.80;;;;;;5099562;28;20016;-62
2023/03/17 02:50:27;;;;;;;7.22;3.10;;;9.60;62.80;;;;;;5104295;28;20023;-62
2023/03/17 02:52:53;;;;;;;7.32;3.60;;;9.60;63.50;;;;;;5103914;28;20433;-62
2023/03/17 02:55:19;;;;;;;7.38;3.30;;;9.60;62.90;;;;;;5101218;28;20043;-62
2023/03/17 02:57:45;;;;;;;7.18;3.13;;;9.50;62.90;;;;;;5097647;28;20069;-62
2023/03/17 03:00:13;;;;;;;7.43;3.28;;;9.50;63.00;;;;;;5098715;28;20055;-62
2023/03/17 03:02:39;;;;;;;9.15;3.47;;;9.50;63.10;;;;;;5096667;28;20397;-62
2023/03/17 03:05:07;;;;;;;7.20;3.83;;;9.50;63.20;;;;;;5096114;28;20449;-62
2023/03/17 03:07:33;;;;;;;6.85;3.47;;;9.50;63.20;;;;;;5097690;28;20107;-62
2023/03/17 03:10:01;;;;;;;7.28;3.50;;;9.50;63.30;;;;;;5103758;28;20499;-63
2023/03/17 03:12:27;;;;;;;7.32;3.63;;;9.50;63.40;;;;;;5103121;28;20100;-62
2023/03/17 03:14:53;;;;;;;8.65;3.83;;;9.50;64.10;;;;;;5097657;28;20106;-61
2023/03/17 03:17:20;;;;;;;8.98;3.80;;;9.40;63.40;;;;;;5096101;28;20091;-61
2023/03/17 03:19:47;;;;;;;7.93;3.53;;;9.40;63.50;;;;;;5098387;28;20119;-61
2023/03/17 03:22:14;;;;;;;7.85;3.60;;;9.40;63.50;;;;;;5086856;28;20743;-61
2023/03/17 03:24:40;;;;;;;7.85;3.40;;;9.40;63.60;;;;;;5104125;28;20074;-63
2023/03/17 03:27:06;;;;;;;9.40;4.85;;;9.40;63.60;;;;;;5092094;28;20032;-64
2023/03/17 03:29:32;;;;;;;7.63;3.75;;;9.40;63.60;;;;;;5105839;28;20036;-62
2023/03/17 03:31:58;;;;;;;8.02;3.88;;;9.40;63.60;;;;;;5097012;28;20357;-62
2023/03/17 03:34:24;;;;;;;7.95;4.03;;;9.40;63.70;;;;;;5105976;28;20034;-62
2023/03/17 03:36:50;;;;;;;7.47;3.17;;;9.40;63.70;;;;;;5095127;28;20032;-62
2023/03/17 03:39:15;;;;;;;7.63;4.10;;;9.50;63.80;;;;;;5098824;28;20034;-62
2023/03/17 03:41:41;;;;;;;7.63;3.70;;;9.40;63.70;;;;;;5100586;28;20105;-62
2023/03/17 03:44:07;;;;;;;8.20;3.88;;;9.50;63.80;;;;;;5102521;28;20077;-62
2023/03/17 03:46:33;;;;;;;7.63;4.10;;;9.50;63.60;;;;;;5094028;28;20052;-62
2023/03/17 03:48:59;;;;;;;6.47;3.00;;;9.50;63.60;;;;;;5101156;28;20031;-62
2023/03/17 03:51:25;;;;;;;6.25;3.03;;;9.50;63.50;;;;;;5080534;28;20464;-62
2023/03/17 03:53:51;;;;;;;6.22;3.13;;;9.60;63.50;;;;;;5099189;28;20444;-62
2023/03/17 03:56:16;;;;;;;6.90;3.47;;;9.60;63.50;;;;;;5102468;27;20047;-62
2023/03/17 03:58:42;;;;;;;6.78;3.08;;;9.60;63.40;;;;;;5094093;28;20035;-62
2023/03/17 04:01:08;;;;;;;6.65;3.22;;;9.60;63.40;;;;;;5092736;28;20089;-62
2023/03/17 04:03:36;;;;;;;6.35;2.83;;;9.60;63.40;;;;;;5081217;28;20115;-63
2023/03/17 04:06:02;;;;;;;7.30;3.42;;;9.60;63.40;;;;;;5078152;28;20115;-62
2023/03/17 04:08:28;;;;;;;7.78;3.35;;;9.60;63.40;;;;;;5080777;28;20107;-62
2023/03/17 04:10:55;;;;;;;6.85;3.47;;;9.60;63.50;;;;;;5081137;28;20032;-62
2023/03/17 04:13:21;;;;;;;6.45;2.75;;;9.60;63.40;;;;;;5077340;28;20037;-62
2023/03/17 04:15:46;;;;;;;7.13;3.53;;;9.60;63.40;;;;;;5083618;28;20016;-62
2023/03/17 04:18:12;;;;;;;6.93;2.72;;;9.60;63.40;;;;;;5094678;28;20517;-61
2023/03/17 04:20:38;;;;;;;5.78;2.92;;;9.60;63.40;;;;;;5082345;28;20039;-61
2023/03/17 04:23:04;;;;;;;7.55;3.20;;;9.60;63.40;;;;;;5079888;28;20025;-61
2023/03/17 04:25:31;;;;;;;7.65;3.13;;;9.60;63.50;;;;;;5090973;28;20368;-62
2023/03/17 04:27:57;;;;;;;7.18;2.97;;;9.60;63.60;;;;;;5081964;28;20062;-61
2023/03/17 04:30:22;;;;;;;8.52;3.33;;;9.60;63.60;;;;;;5084812;28;20067;-61
2023/03/17 04:32:48;;;;;;;7.35;3.22;;;9.60;63.50;;;;;;5080380;28;20024;-62
2023/03/17 04:35:21;;;;;;;7.90;2.70;;;9.50;63.50;;;;;;5090376;28;20036;-62
2023/03/17 04:37:48;;;;;;;6.53;3.05;;;9.50;63.60;;;;;;5081610;28;20177;-61
2023/03/17 04:40:15;;;;;;;6.93;2.85;;;9.50;63.70;;;;;;5080135;28;20036;-62
2023/03/17 04:42:41;;;;;;;6.80;3.17;;;9.50;63.70;;;;;;5080048;28;20106;-62
2023/03/17 04:45:10;;;;;;;7.70;3.03;;;9.40;63.80;;;;;;5078695;28;20158;-62
2023/03/17 04:47:36;;;;;;;6.18;2.60;;;9.40;63.90;;;;;;5076486;28;20031;-61
2023/03/17 04:50:02;;;;;;;5.93;3.20;;;9.40;63.90;;;;;;5091230;28;20040;-61
2023/03/17 04:52:28;;;;;;;8.15;3.38;;;9.30;64.00;;;;;;5088636;28;20352;-61
2023/03/17 04:54:54;;;;;;;6.90;3.00;;;9.30;64.10;;;;;;5091822;28;20047;-62
2023/03/17 04:57:21;;;;;;;7.68;3.20;;;9.30;64.20;;;;;;5082496;28;20033;-62
2023/03/17 04:59:46;;;;;;;5.97;2.70;;;9.20;64.20;;;;;;5081802;28;20040;-62
2023/03/17 05:02:12;;;;;;;6.93;3.10;;;9.20;64.30;;;;;;5074047;28;20028;-62
2023/03/17 05:04:38;;;;;;;7.07;3.03;;;9.20;64.30;;;;;;5085501;28;20024;-62
2023/03/17 05:07:04;;;;;;;5.50;2.50;;;9.20;64.30;;;;;;5075188;28;20011;-62
2023/03/17 05:09:30;;;;;;;7.15;3.10;;;9.20;64.40;;;;;;5082915;28;20032;-61
2023/03/17 05:11:56;;;;;;;7.65;3.28;;;9.20;64.50;;;;;;5082935;28;20031;-62
2023/03/17 05:14:21;;;;;;;7.07;2.92;;;9.10;64.50;;;;;;5078073;28;20109;-61
2023/03/17 05:16:47;;;;;;;7.65;3.17;;;9.20;64.50;;;;;;5074880;28;20032;-62
2023/03/17 05:19:13;;;;;;;6.90;3.15;;;9.20;64.50;;;;;;5097698;28;20035;-62
2023/03/17 05:21:39;;;;;;;6.35;3.00;;;9.10;64.50;;;;;;5086009;28;20086;-61
2023/03/17 05:24:05;;;;;;;9.48;3.47;;;9.20;64.60;;;;;;5089596;28;20110;-61
2023/03/17 05:26:31;;;;;;;6.88;3.22;;;9.20;64.70;;;;;;5096169;28;20103;-62
2023/03/17 05:28:57;;;;;;;7.68;3.45;;;9.20;64.60;;;;;;5094016;28;20396;-61
2023/03/17 05:31:23;;;;;;;8.02;3.30;;;9.20;64.60;;;;;;5094495;28;20032;-61
2023/03/17 05:33:49;;;;;;;6.40;2.90;;;9.20;64.60;;;;;;5086894;28;20036;-62
2023/03/17 05:36:16;;;;;;;7.15;2.80;;;9.20;64.60;;;;;;5093055;28;20059;-62
2023/03/17 05:38:43;;;;;;;6.80;3.03;;;9.20;64.60;;;;;;5094350;28;20083;-61
2023/03/17 05:41:09;;;;;;;6.95;3.30;;;9.20;64.70;;;;;;5093585;28;20035;-61
2023/03/17 05:43:36;;;;;;;5.38;2.35;;;9.20;64.80;;;;;;5097446;28;20100;-61
2023/03/17 05:46:02;;;;;;;6.30;3.00;;;9.20;64.80;;;;;;5100119;28;20075;-61
2023/03/17 05:48:28;;;;;;;6.68;2.85;;;9.20;64.80;;;;;;5095423;28;20422;-61
2023/03/17 05:50:54;;;;;;;7.30;2.95;;;9.10;64.80;;;;;;5105301;28;20027;-61
2023/03/17 05:53:21;;;;;;;6.82;2.85;;;9.10;64.80;;;;;;5089504;28;20024;-61
2023/03/17 05:55:47;;;;;;;7.57;3.22;;;9.10;64.80;;;;;;5087192;28;20020;-64
2023/03/17 05:58:14;;;;;;;7.57;3.15;;;9.10;64.80;;;;;;5099850;28;20020;-61
2023/03/17 06:00:40;;;;;;;6.38;3.05;;;9.10;64.80;;;;;;5093571;28;20401;-62
2023/03/17 06:03:06;;;;;;;7.35;3.13;;;9.10;64.90;;;;;;5093427;28;20027;-62
2023/03/17 06:05:34;;;;;;;7.32;3.28;;;9.00;64.90;;;;;;5092768;28;20038;-61
2023/03/17 06:08:00;;;;;;;6.43;3.00;;;9.10;65.00;;;;;;5096608;28;20066;-62
2023/03/17 06:10:26;;;;;;;5.95;2.88;;;9.10;64.90;;;;;;5079336;28;20361;-61
2023/03/17 06:12:52;;;;;;;7.72;3.20;;;9.10;64.90;;;;;;5093396;28;20042;-62
2023/03/17 06:15:18;;;;;;;6.95;3.15;;;9.10;64.90;;;;;;5100433;28;20028;-62
2023/03/17 06:17:45;;;;;;;6.78;3.05;;;9.20;64.90;;;;;;5093108;28;20040;-62
2023/03/17 06:20:12;;;;;;;7.57;3.17;;;9.10;64.90;;;;;;5093632;28;20048;-61
2023/03/17 06:22:38;;;;;;;9.60;3.33;;;9.20;65.00;;;;;;5094761;28;20024;-62
2023/03/17 06:25:04;;;;;;;7.18;3.28;;;9.20;65.00;;;;;;5094319;28;20019;-63
2023/03/17 06:27:31;;;;;;;12.32;3.25;;;9.20;65.00;;;;;;5100686;28;20020;-62
2023/03/17 06:29:58;;;;;;;8.57;3.67;;;9.20;64.90;;;;;;5093279;28;20035;-62
2023/03/17 06:32:24;;;;;;;6.57;3.03;;;9.30;64.90;;;;;;5092931;28;21184;-62
2023/03/17 06:34:50;;;;;;;6.38;3.35;;;9.20;64.80;;;;;;5087842;28;20437;-62
2023/03/17 06:37:16;;;;;;;6.25;3.08;;;9.30;65.00;;;;;;5084358;28;20043;-62
2023/03/17 06:39:42;;;;;;;8.40;3.67;;;9.30;65.00;;;;;;5093095;28;20028;-62
2023/03/17 06:42:08;;;;;;;8.10;3.53;;;9.30;65.00;;;;;;5091838;28;20052;-62
2023/03/17 06:44:35;;;;;;;9.68;3.78;;;9.30;65.00;;;;;;5090396;28;20024;-63
2023/03/17 06:47:01;;;;;;;8.07;4.10;;;9.30;65.00;;;;;;5094256;28;20034;-62
2023/03/17 06:49:26;;;;;;;7.40;3.28;;;9.30;65.10;;;;;;5092417;28;20032;-62
2023/03/17 06:51:52;;;;;;;7.65;3.50;;;9.40;65.00;;;;;;5096248;28;20020;-62
2023/03/17 06:54:20;;;;;;;8.35;3.60;;;9.40;64.90;;;;;;5093645;28;20044;-62
2023/03/17 06:56:46;;;;;;;6.93;2.80;;;9.50;64.60;;;;;;5080363;28;20117;-62
2023/03/17 06:59:12;;;;;;;8.20;3.40;;;9.70;64.20;;;;;;5092900;28;20031;-62
2023/03/17 07:01:38;;;;;;;6.65;3.13;;;9.80;63.80;;;;;;5080361;28;20032;-62
2023/03/17 07:04:04;;;;;;;7.10;3.13;;;9.90;63.50;;;;;;5093411;28;20103;-63
2023/03/17 07:06:30;;;;;;;8.32;3.00;;;10.10;63.20;;;;;;5086806;28;20044;-63
2023/03/17 07:08:56;;;;;;;8.63;3.03;;;10.20;63.00;;;;;;5093913;28;20026;-64
2023/03/17 07:11:22;;;;;;;8.57;3.30;;;10.30;62.80;;;;;;5093365;28;20036;-63
2023/03/17 07:13:49;;;;;;;7.03;3.45;;;10.30;62.50;;;;;;5093010;28;20028;-64
2023/03/17 07:16:18;;;;;;;6.80;3.13;;;10.40;62.30;;;;;;5098744;28;20048;-64
2023/03/17 07:18:45;;;;;;;7.95;3.17;;;10.50;62.10;;;;;;5086396;28;20036;-63
2023/03/17 07:21:10;;;;;;;6.88;3.30;;;10.60;61.80;;;;;;5089822;28;20032;-62
2023/03/17 07:23:36;;;;;;;6.97;3.63;;;10.70;61.70;;;;;;5090336;28;20020;-62
2023/03/17 07:26:03;;;;;;;8.07;3.42;;;10.70;61.50;;;;;;5091777;28;20453;-62
2023/03/17 07:28:29;;;;;;;7.05;3.15;;;10.80;61.30;;;;;;5101368;28;20059;-63
2023/03/17 07:30:56;;;;;;;10.05;3.63;;;10.90;61.20;;;;;;5095396;28;20437;-64
2023/03/17 07:33:23;;;;;;;8.15;3.50;;;10.90;61.00;;;;;;5095946;28;20020;-63
2023/03/17 07:35:50;;;;;;;5.88;2.63;;;11.00;60.80;;;;;;5095076;28;20329;-63
2023/03/17 07:38:17;;;;;;;7.10;3.00;;;11.10;60.70;;;;;;5094061;28;20027;-63
2023/03/17 07:40:46;;;;;;;8.30;3.15;;;11.10;60.50;;;;;;5091419;28;20029;-63
2023/03/17 07:43:13;;;;;;;5.13;2.53;;;11.20;60.40;;;;;;5094198;28;20024;-62
2023/03/17 07:45:38;;;;;;;6.57;2.97;;;11.30;60.20;;;;;;5094677;28;20115;-63
2023/03/17 07:48:05;;;;;;;7.22;3.00;;;11.30;60.10;;;;;;5092722;28;20099;-63
2023/03/17 07:50:33;;;;;;;6.57;3.10;;;11.40;60.10;;;;;;5097838;28;20154;-63
2023/03/17 07:52:58;;;;;;;9.43;2.83;;;11.40;60.00;;;;;;5092411;28;20040;-64
2023/03/17 07:55:25;;;;;;;7.30;3.08;;;11.40;59.90;;;;;;5101238;28;20027;-63
2023/03/17 07:57:51;;;;;;;6.80;3.03;;;11.50;59.90;;;;;;5081511;28;20136;-63
2023/03/17 08:00:18;;;;;;;6.50;3.00;;;11.60;59.70;;;;;;5092487;28;20043;-63
2023/03/17 08:02:45;;;;;;;7.45;3.38;;;11.70;59.60;;;;;;5096939;28;20491;-62
2023/03/17 08:05:12;;;;;;;6.40;2.78;;;11.70;59.50;;;;;;5097192;28;20038;-63
2023/03/17 08:07:37;;;;;;;8.35;3.33;;;11.90;59.40;;;;;;5095692;28;20077;-63
2023/03/17 08:10:06;;;;;;;6.45;2.95;;;11.90;59.20;;;;;;5093395;28;20036;-62
2023/03/17 08:12:33;;;;;;;6.90;2.92;;;12.10;59.10;;;;;;5097019;28;20032;-63
2023/03/17 08:14:58;;;;;;;7.68;2.83;;;12.20;58.90;;;;;;5096644;28;20032;-62
2023/03/17 08:17:26;;;;;;;7.50;3.40;;;12.20;58.60;;;;;;5097160;28;20024;-62
2023/03/17 08:19:55;;;;;;;6.88;3.00;;;12.40;58.50;;;;;;5091426;28;20060;-62
2023/03/17 08:22:22;;;;;;;8.57;3.15;;;12.50;58.20;;;;;;5096706;28;20025;-62
2023/03/17 08:24:48;;;;;;;7.68;2.88;;;12.70;57.90;;;;;;5097033;28;20020;-62
2023/03/17 08:27:14;;;;;;;6.97;3.10;;;12.90;57.70;;;;;;5094021;28;20453;-62
2023/03/17 08:29:40;;;;;;;9.40;2.97;;;13.00;57.40;;;;;;5094910;28;20051;-63
2023/03/17 08:32:07;;;;;;;7.75;2.67;;;13.20;57.30;;;;;;5090137;28;20448;-63
2023/03/17 08:34:33;;;;;;;7.30;2.58;;;13.30;57.00;;;;;;5104344;28;20464;-63
2023/03/17 08:37:00;;;;;;;8.45;3.53;;;13.50;56.80;;;;;;5105589;28;20032;-62
2023/03/17 08:39:26;;;;;;;6.78;3.00;;;13.60;56.50;;;;;;5102732;28;20032;-62
2023/03/17 08:41:51;;;;;;;7.50;3.10;;;13.80;56.30;;;;;;5100436;28;20043;-62
2023/03/17 08:44:18;;;;;;;6.95;3.03;;;13.90;56.00;;;;;;5082599;28;20039;-63
2023/03/17 08:46:44;;;;;;;9.85;3.10;;;14.10;55.80;;;;;;5100440;28;20027;-63
2023/03/17 08:49:11;;;;;;;6.40;2.75;;;14.20;55.50;;;;;;5082883;28;20133;-63
2023/03/17 08:51:39;;;;;;;5.70;2.67;;;14.40;55.30;;;;;;5083441;28;20114;-63
2023/03/17 08:54:05;;;;;;;6.63;2.67;;;14.60;55.00;;;;;;5094936;28;20024;-63
2023/03/17 08:56:32;;;;;;;6.18;2.38;;;14.70;54.70;;;;;;5097867;28;20032;-63
2023/03/17 08:58:58;;;;;;;6.90;2.65;;;14.80;54.40;;;;;;5097668;28;20032;-62
2023/03/17 09:01:25;;;;;;;8.25;3.03;;;14.90;54.30;;;;;;5076551;28;20024;-62
2023/03/17 09:03:53;;;;;;;6.88;2.58;;;14.90;54.20;;;;;;5091893;28;20421;-62
2023/03/17 09:06:20;;;;;;;5.85;2.60;;;14.90;54.20;;;;;;5096257;28;20031;-63
2023/03/17 09:08:51;;;;;;;6.53;2.65;;;14.90;54.10;;;;;;5094978;28;20110;-62
2023/03/17 09:11:19;;;;;;;5.57;2.70;;;14.90;54.00;;;;;;5093622;28;20035;-62
2023/03/17 09:13:46;;;;;;;6.32;2.70;;;14.90;53.90;;;;;;5095314;28;20047;-63
2023/03/17 09:16:16;;;;;;;7.00;2.90;;;15.00;53.70;;;;;;5099007;28;20448;-63
2023/03/17 09:18:43;;;;;;;6.60;2.60;;;15.00;53.50;;;;;;5092271;28;20077;-62
2023/03/17 09:21:11;;;;;;;6.10;2.70;;;15.00;54.10;;;;;;5095815;28;20036;-63
2023/03/17 09:23:37;;;;;;;6.15;2.92;;;15.10;53.60;;;;;;5089913;28;20032;-63
2023/03/17 09:26:03;;;;;;;6.10;2.50;;;15.30;53.50;;;;;;5094393;28;20027;-63
2023/03/17 09:28:29;;;;;;;6.43;2.80;;;15.30;53.30;;;;;;5094346;28;20032;-63
2023/03/17 09:31:00;;;;;;;6.07;2.72;;;15.50;53.20;;;;;;5094565;28;20031;-63
2023/03/17 09:33:27;;;;;;;6.60;2.53;;;15.60;52.90;;;;;;5082961;28;20020;-63
2023/03/17 09:35:55;;;;;;;6.60;2.63;;;15.70;52.80;;;;;;5094686;28;20266;-63
2023/03/17 09:38:22;;;;;;;6.43;2.97;;;15.70;52.80;;;;;;5081321;28;20032;-63
2023/03/17 09:41:00;;;;;;;8.27;3.13;;;15.60;52.80;;;;;;5095010;28;20059;-62
2023/03/17 09:43:35;;;;;;;6.38;2.38;;;15.50;53.20;;;;;;5081857;28;20020;-63
2023/03/17 09:46:27;;;;;;;7.38;2.92;;;15.40;52.70;;;;;;5095178;28;20032;-62
2023/03/17 09:49:06;;;;;;;;;;;15.40;52.60;;;;;;5094824;28;20112;-63
2023/03/17 09:51:33;;;;;;;8.25;2.63;;;15.40;52.90;;;;;;5093771;28;19926;-63
2023/03/17 09:54:31;;;;;;;7.68;2.67;;;15.40;52.80;;;;;;5084752;28;20031;-63
2023/03/17 09:57:17;;;;;;;6.60;2.58;;;15.50;52.50;;;;;;5094607;28;20040;-63
2023/03/17 09:59:48;;;;;;;6.72;2.97;;;15.60;52.30;;;;;;5086821;28;20221;-62
2023/03/17 10:02:30;;;;;;;6.97;2.78;;;15.70;52.30;;;;;;5094331;28;20023;-63
2023/03/17 10:04:57;;;;;;;6.10;2.58;;;15.80;52.20;;;;;;5075998;28;20021;-63
2023/03/17 10:07:41;;;;;;;6.47;2.88;;;15.90;52.10;;;;;;5093877;28;20027;-63
2023/03/17 10:10:42;;;;;;;6.68;3.00;;;16.10;51.70;;;;;;5093548;28;20039;-62
2023/03/17 10:13:27;;;;;;;6.47;2.40;;;16.10;51.50;;;;;;5077589;28;20052;-62
2023/03/17 10:15:56;;;;;;;6.00;2.47;;;16.20;51.50;;;;;;5102288;28;20333;-63
2023/03/17 10:18:28;;;;;;;6.47;2.63;;;16.30;51.40;;;;;;5091365;28;20036;-63
2023/03/17 10:20:59;;;;;;;7.95;3.03;;;16.40;51.30;;;;;;5087644;28;20044;-63
2023/03/17 10:23:30;;;;;;;6.40;2.35;;;16.50;51.20;;;;;;5089580;28;20067;-63
2023/03/17 10:25:59;;;;;;;7.87;3.17;;;16.50;51.20;;;;;;5103504;28;20016;-63
2023/03/17 10:28:28;;;;;;;5.57;2.63;;;16.50;51.20;;;;;;5089017;28;20028;-62
2023/03/17 10:31:15;;;;;;;9.10;3.08;;;16.40;51.30;;;;;;5089210;28;20043;-62
2023/03/17 10:33:43;;;;;;;6.75;3.10;;;16.50;51.40;;;;;;5088147;28;20039;-62
2023/03/17 10:36:10;;;;;;;5.53;2.67;;;16.50;51.30;;;;;;5091156;28;20119;-62
2023/03/17 10:38:36;;;;;;;6.18;2.85;;;16.60;51.30;;;;;;5090629;28;20041;-63
2023/03/17 10:41:08;;;;;;;6.40;2.83;;;16.70;51.10;;;;;;5088479;28;20031;-62
2023/03/17 10:43:44;;;;;;;6.57;2.90;;;16.80;50.90;;;;;;5098218;28;20016;-64
2023/03/17 10:46:23;;;;;;;6.30;2.70;;;16.90;50.90;;;;;;5100060;28;20046;-62
2023/03/17 10:48:53;;;;;;;6.72;3.00;;;16.90;50.80;;;;;;5092808;28;20048;-62
2023/03/17 10:51:29;;;;;;;5.80;2.53;;;16.90;50.90;;;;;;5089327;28;20507;-63
2023/03/17 10:54:00;;;;;;;6.95;3.03;;;16.90;50.90;;;;;;5094163;28;20070;-63
2023/03/17 10:56:29;;;;;;;6.75;2.92;;;16.90;51.10;;;;;;5100439;28;20116;-63
2023/03/17 10:58:57;;;;;;;6.50;2.80;;;16.90;51.20;;;;;;5093616;28;20073;-63
2023/03/17 11:01:28;;;;;;;7.57;3.05;;;16.90;51.20;;;;;;5074835;28;20467;-63
2023/03/17 11:03:54;;;;;;;6.60;3.40;;;16.90;51.00;;;;;;5093603;28;20081;-63
2023/03/17 11:06:32;;;;;;;6.47;2.53;;;17.00;51.00;;;;;;5091897;28;20040;-62
2023/03/17 11:09:08;;;;;;;6.93;2.70;;;17.00;50.90;;;;;;5086047;28;20428;-63
2023/03/17 11:11:45;;;;;;;6.72;2.72;;;17.10;51.00;;;;;;5097448;28;20105;-63
2023/03/17 11:14:18;;;;;;;9.68;3.72;;;17.10;51.00;;;;;;5102619;28;20032;-62
2023/03/17 11:16:52;;;;;;;7.43;3.35;;;17.10;51.00;;;;;;5083201;28;20031;-62
2023/03/17 11:19:21;;;;;;;6.30;2.65;;;17.10;50.80;;;;;;5084103;28;20032;-62
2023/03/17 11:22:37;;;;;;;7.00;2.97;;;17.20;50.80;;;;;;5089369;28;20024;-62
2023/03/17 11:25:14;;;;;;;7.95;3.03;;;17.20;50.70;;;;;;5055385;28;20025;-62
2023/03/17 11:27:52;;;;;;;7.93;3.30;;;17.30;50.70;;;;;;5036156;28;20029;-63
2023/03/17 11:30:37;;;;;;;6.47;2.80;;;17.30;50.60;;;;;;5084223;28;20051;-62
2023/03/17 11:33:24;;;;;;;10.93;3.10;;;17.30;50.60;;;;;;5107938;28;20027;-62
2023/03/17 11:36:07;;;;;;;7.65;3.05;;;17.40;50.50;;;;;;5096379;28;20370;-63
2023/03/17 11:38:52;;;;;;;7.70;2.88;;;17.40;50.60;;;;;;5095751;28;20136;-62
2023/03/17 11:41:25;;;;;;;10.38;3.50;;;17.30;50.70;;;;;;5099212;28;20032;-62
2023/03/17 11:44:08;;;;;;;7.03;2.85;;;17.10;50.90;;;;;;5105565;28;20028;-62
2023/03/17 11:46:42;;;;;;;6.93;3.20;;;17.00;51.10;;;;;;5100760;28;20361;-62
2023/03/17 11:49:16;;;;;;;7.43;3.38;;;16.90;51.20;;;;;;5094882;28;20036;-62
2023/03/17 11:51:55;;;;;;;7.07;3.22;;;16.90;51.40;;;;;;5095592;28;20042;-62
2023/03/17 11:54:27;;;;;;;6.40;3.60;;;16.90;51.40;;;;;;5096153;28;20032;-62
2023/03/17 11:56:56;;;;;;;8.43;3.28;;;16.90;51.40;;;;;;5095289;28;20024;-64
2023/03/17 11:59:27;;;;;;;9.13;3.13;;;17.10;51.40;;;;;;5105890;28;20034;-62
2023/03/17 12:01:56;;;;;;;;;;;17.20;51.20;;;;;;5104166;28;20025;-62
2023/03/17 12:04:34;;;;;;;6.35;2.80;;;17.40;51.10;;;;;;5095449;28;19923;-62
2023/03/17 12:07:20;;;;;;;8.15;3.85;;;17.40;50.90;;;;;;5083540;28;20361;-62
2023/03/17 12:10:21;;;;;;;8.77;3.42;;;17.40;50.90;;;;;;5101417;28;20024;-62
2023/03/17 12:13:20;;;;;;;7.07;3.40;;;17.50;51.20;;;;;;5100761;28;20054;-62
2023/03/17 12:15:58;;;;;;;6.22;3.08;;;17.60;51.10;;;;;;5091317;28;20413;-63
2023/03/17 12:18:39;;;;;;;8.07;3.65;;;17.60;51.00;;;;;;5092490;28;20472;-63
2023/03/17 12:21:17;;;;;;;7.88;3.60;;;17.60;51.10;;;;;;5109869;27;20094;-63
2023/03/17 12:23:47;;;;;;;6.70;3.13;;;17.60;51.30;;;;;;5102479;28;20031;-63
2023/03/17 12:26:37;;;;;;;8.98;3.25;;;17.60;51.30;;;;;;5093361;28;20126;-63
2023/03/17 12:29:11;;;;;;;6.43;3.53;;;17.60;51.20;;;;;;5098935;28;20488;-63
2023/03/17 12:31:43;;;;;;;6.88;3.17;;;17.60;51.20;;;;;;5094607;28;20032;-63
2023/03/17 12:34:21;;;;;;;9.38;3.30;;;17.60;51.20;;;;;;5094355;28;20479;-63
2023/03/17 12:36:48;;;;;;;6.32;3.08;;;17.60;51.20;;;;;;5102779;28;20063;-64
2023/03/17 12:39:35;;;;;;;7.97;3.92;;;17.60;51.30;;;;;;5096881;28;20135;-64
2023/03/17 12:42:26;;;;;;;6.80;3.28;;;17.60;51.30;;;;;;5095563;28;20156;-64
2023/03/17 12:45:27;;;;;;;10.30;3.33;;;17.60;51.10;;;;;;5096386;28;20331;-64
2023/03/17 12:48:18;;;;;;;7.72;3.22;;;17.60;51.10;;;;;;5095514;28;20326;-64
2023/03/17 12:51:05;;;;;;;10.15;3.72;;;17.60;51.10;;;;;;5094944;28;20364;-64
2023/03/17 12:53:33;;;;;;;7.57;3.25;;;17.60;51.10;;;;;;5096269;28;20032;-64
2023/03/17 12:56:14;;;;;;;9.85;3.22;;;17.60;51.10;;;;;;5096098;28;20077;-64
2023/03/17 12:58:44;;;;;;;11.38;3.78;;;17.60;51.10;;;;;;5091514;28;20122;-64
2023/03/17 13:01:24;;;;;;;7.70;3.70;;;17.60;51.30;;;;;;5081240;28;20030;-64